Latest Weather Observations for Norseman Airport

IDW60801

Issued at 8:35 pm WST Friday 24 October 2014 (issued every 30 minutes, with the page automatically refreshed every 10 minutes)

About weather observations | Map of weather stations | Latest weather observations for WA | Other Formats
Station Details ID: 012009 Name: NORSEMAN AERO Lat: -32.21 Lon: 121.75 Height: 262.5 m
Data from the previous 72 hours. | See also: Recent months at Norseman Airport
Date/Time
WST
Temp
°C
App
Temp
°C
Dew
Point
Rel
Hum
%
Delta-T
°C
Wind Press
QNH
hPa
Press
MSL
hPa
Rain
since 9 am
mm
Dir
 
Spd
km/h
Gust
km/h
Spd
kts
Gust
kts
24/08:30pm 20.4 17.5 12.4 60 4.5 E 19 28 10 15 1014.7 1014.2 0.0
24/08:00pm 21.0 18.5 12.2 57 5.0 E 17 22 9 12 1014.8 1014.3 0.0
24/07:30pm 21.0 19.2 12.2 57 5.0 E 13 17 7 9 1014.9 1014.4 0.0
24/07:00pm 20.9 19.8 11.8 56 5.1 E 9 13 5 7 1015.0 1014.5 0.0
24/06:30pm 21.2 20.5 13.1 60 4.7 ESE 9 9 5 5 1014.9 1014.4 0.0
24/06:00pm 23.8 23.0 11.8 47 6.9 ENE 7 9 4 5 1014.9 1014.4 0.0
24/05:30pm 24.4 24.6 11.7 45 7.3 E 2 6 1 3 1014.9 1014.4 0.0
24/05:00pm 24.5 24.7 11.8 45 7.3 SE 2 7 1 4 1014.9 1014.4 0.0
24/04:30pm 23.5 22.8 11.5 47 6.8 ENE 6 9 3 5 1015.0 1014.5 0.0
24/04:00pm 23.5 21.7 12.2 49 6.5 NE 13 17 7 9 1015.3 1014.7 0.0
24/03:30pm 23.3 22.9 12.3 50 6.3 N 6 11 3 6 1015.4 1014.8 0.0
24/03:00pm 23.3 22.6 12.0 49 6.5 N 7 9 4 5 1015.6 1015.0 0.0
24/02:30pm 23.4 21.9 11.8 48 6.6 NNW 11 15 6 8 1016.2 1015.6 0.0
24/02:00pm 23.2 22.5 13.1 53 5.9 N 9 13 5 7 1016.3 1015.7 0.0
24/01:30pm 22.4 22.0 12.9 55 5.5 WNW 7 9 4 5 1016.8 1016.2 0.0
24/01:00pm 21.8 21.4 12.9 57 5.1 NW 7 11 4 6 1017.0 1016.4 0.0
24/12:30pm 21.5 21.4 13.4 60 4.7 N 6 11 3 6 1017.2 1016.6 0.0
24/12:00pm 21.0 20.9 13.2 61 4.5 NNW 6 9 3 5 1017.4 1016.8 0.0
24/11:30am 20.5 20.2 12.7 61 4.5 W 6 13 3 7 1017.8 1017.3 0.0
24/11:00am 20.2 19.7 12.7 62 4.3 NNW 7 11 4 6 1018.2 1017.7 0.0
24/10:30am 19.0 18.4 12.3 65 3.8 NW 7 11 4 6 1018.7 1018.2 0.0
24/10:00am 18.5 17.4 11.8 65 3.7 ENE 9 13 5 7 1018.9 1018.4 0.0
24/09:30am 18.7 18.3 13.1 70 3.2 NE 7 13 4 7 1019.2 1018.6 0.0
24/09:00am 17.6 16.2 12.3 71 3.0 E 11 15 6 8 1019.2 1018.6 0.0
24/08:30am 17.1 16.2 12.6 75 2.5 ESE 9 11 5 6 1019.0 1018.5 0.0
24/08:00am 16.8 15.9 12.5 76 2.4 SSE 9 13 5 7 1018.9 1018.4 0.0
24/07:30am 16.7 15.8 12.5 76 2.3 SE 9 11 5 6 1018.7 1018.2 0.0
24/07:00am 16.4 15.2 12.8 79 2.0 SE 11 13 6 7 1018.6 1018.1 0.0
24/06:30am 16.3 15.5 12.8 80 2.0 S 9 13 5 7 1018.5 1018.0 0.0
24/06:00am 16.2 15.3 12.7 80 2.0 SSW 9 11 5 6 1018.1 1017.6 0.0
24/05:30am 16.0 15.1 12.6 80 1.9 SSW 9 13 5 7 1017.9 1017.4 0.0
24/05:00am 15.9 14.8 13.0 83 1.6 SSW 11 15 6 8 1017.6 1017.1 0.0
24/04:30am 16.0 15.3 13.1 83 1.6 SSW 9 15 5 8 1017.4 1016.8 0.0
24/04:00am 16.1 15.0 13.0 82 1.7 SSW 11 15 6 8 1017.2 1016.6 0.0
24/03:30am 16.3 14.4 13.0 81 1.9 SSW 15 20 8 11 1017.1 1016.5 0.0
24/03:00am 16.3 14.7 12.7 79 2.0 SSW 13 19 7 10 1016.9 1016.3 0.0
24/02:30am 16.7 15.1 12.8 78 2.2 S 13 20 7 11 1016.9 1016.3 0.0
24/02:00am 16.8 14.9 13.1 79 2.1 S 15 22 8 12 1016.8 1016.2 0.0
24/01:30am 16.9 14.7 13.2 79 2.1 S 17 22 9 12 1016.7 1016.1 0.0
24/01:00am 16.9 15.6 13.6 81 1.9 S 13 17 7 9 1016.6 1016.0 0.0
24/12:30am 16.9 15.6 13.6 81 1.9 S 13 19 7 10 1016.6 1016.0 0.0
24/12:00am 16.7 15.0 13.6 82 1.8 S 15 24 8 13 1016.8 1016.2 0.0
 
Date/Time
WST
Temp
°C
App
Temp
°C
Dew
Point
Rel
Hum
%
Delta-T
°C
Wind Press
QNH
hPa
Press
MSL
hPa
Rain
since 9 am
mm
Dir
 
Spd
km/h
Gust
km/h
Spd
kts
Gust
kts
23/11:30pm 16.5 14.3 13.4 82 1.8 S 17 24 9 13 1016.8 1016.2 0.0
23/11:00pm 16.8 14.4 12.5 76 2.4 S 17 30 9 16 1016.6 1016.0 0.0
23/10:30pm 17.6 14.8 12.5 72 2.9 S 19 30 10 16 1016.5 1015.9 0.0
23/10:00pm 17.9 15.2 10.3 61 4.1 S 15 24 8 13 1016.2 1015.6 0.0
23/09:30pm 17.3 15.0 9.0 58 4.4 S 11 17 6 9 1016.0 1015.4 0.0
23/09:00pm 17.3 15.2 9.7 61 4.0 SW 11 13 6 7 1015.8 1015.2 0.0
23/08:30pm 17.5 15.9 10.1 62 4.0 WSW 9 11 5 6 1015.6 1015.0 0.0
23/08:00pm 18.1 16.8 11.4 65 3.7 SW 9 11 5 6 1015.4 1014.8 0.0
23/07:30pm 18.9 16.4 9.7 55 4.9 SSW 13 15 7 8 1015.0 1014.5 0.0
23/07:00pm 19.6 17.1 9.8 53 5.3 SSW 13 17 7 9 1014.5 1014.0 0.0
23/06:30pm 21.6 17.3 9.5 46 6.6 SW 22 32 12 17 1013.9 1013.3 0.0
23/06:00pm 22.6 17.9 9.4 43 7.2 WSW 24 30 13 16 1013.3 1012.7 0.0
23/05:30pm 24.0 18.1 9.2 39 8.1 SW 30 37 16 20 1012.8 1012.2 0.0
23/05:00pm 24.9 19.7 8.8 36 8.8 WSW 26 41 14 22 1012.5 1011.9 0.0
23/04:30pm 25.4 20.1 9.7 37 8.7 WSW 28 43 15 23 1012.2 1011.6 0.0
23/04:00pm 25.9 20.3 8.8 34 9.4 WSW 28 35 15 19 1012.0 1011.4 0.0
23/03:30pm 26.3 21.6 9.2 34 9.5 W 24 35 13 19 1011.7 1011.1 0.0
23/03:00pm 26.0 19.6 8.5 33 9.6 WSW 32 46 17 25 1011.7 1011.1 0.0
23/02:56pm 26.1 20.7 9.4 35 9.3 WSW 28 46 15 25 1011.6 1011.0 0.0
23/02:30pm 26.2 19.9 9.1 34 9.5 WSW 32 43 17 23 1011.6 1011.0 0.0
23/02:00pm 26.2 21.3 10.0 36 9.1 W 26 43 14 23 1011.5 1010.9 0.0
23/01:39pm 25.8 20.4 9.6 36 9.0 W 28 46 15 25 1011.6 1011.0 0.0
23/01:30pm 25.5 19.1 8.5 34 9.3 WSW 32 44 17 24 1011.6 1011.0 0.0
23/01:00pm 25.5 19.6 8.9 35 9.1 W 30 48 16 26 1011.8 1011.2 0.0
23/12:30pm 25.2 19.3 10.6 40 8.2 W 32 41 17 22 1012.0 1011.4 0.0
23/12:04pm 24.7 18.9 9.4 38 8.4 W 30 48 16 26 1012.3 1011.7 0.0
23/12:00pm 24.7 18.7 8.6 36 8.8 W 30 44 16 24 1012.3 1011.7 0.0
23/11:30am 24.2 18.9 9.8 40 8.0 W 28 43 15 23 1012.6 1012.0 0.0
23/11:00am 23.7 17.7 10.7 44 7.3 W 33 43 18 23 1012.8 1012.2 0.0
23/10:30am 23.3 17.8 11.7 48 6.6 NW 32 39 17 21 1013.1 1012.5 0.0
23/10:00am 22.7 17.5 10.2 45 6.9 NW 28 37 15 20 1013.2 1012.6 0.0
23/09:30am 22.3 18.2 11.4 50 6.1 W 24 32 13 17 1013.4 1012.8 0.0
23/09:00am 21.5 18.6 10.9 51 5.9 WNW 17 22 9 12 1013.5 1012.9 0.0
23/08:30am 21.0 17.7 11.6 55 5.3 W 20 26 11 14 1013.7 1013.1 0.0
23/08:00am 19.9 16.6 11.7 59 4.6 W 20 24 11 13 1014.0 1013.4 0.0
23/07:30am 18.4 15.4 11.9 66 3.6 W 19 26 10 14 1014.0 1013.4 0.0
23/07:00am 17.7 14.8 12.4 71 3.0 W 19 26 10 14 1013.9 1013.3 0.0
23/06:30am 16.9 12.7 12.4 75 2.5 W 26 32 14 17 1013.8 1013.2 0.0
23/06:00am 16.9 15.2 12.4 75 2.5 W 13 20 7 11 1013.3 1012.7 0.0
23/05:30am 16.0 13.5 12.2 78 2.1 WSW 17 20 9 11 1013.0 1012.4 0.0
23/05:00am 16.2 13.3 12.2 77 2.2 W 19 26 10 14 1012.6 1012.0 0.0
23/04:30am 16.1 15.6 12.7 80 1.9 WSW 7 9 4 5 1012.4 1011.8 0.0
23/04:00am 16.3 15.5 12.8 80 2.0 W 9 13 5 7 1012.1 1011.5 0.0
23/03:30am 16.0 15.5 12.2 78 2.1 WNW 6 9 3 5 1011.7 1011.1 0.0
23/03:00am 16.9 15.6 12.4 75 2.5 WSW 11 15 6 8 1011.5 1010.9 0.0
23/02:30am 18.2 17.2 13.3 73 2.8 NW 11 20 6 11 1011.5 1010.9 0.0
23/02:00am 17.6 15.9 13.5 77 2.3 N 15 19 8 10 1011.0 1010.5 0.0
23/01:30am 17.6 16.9 13.1 75 2.6 NNE 9 11 5 6 1010.8 1010.2 0.0
23/01:00am 18.4 17.1 12.4 68 3.4 NE 11 13 6 7 1010.6 1010.0 0.0
23/12:30am 19.2 16.6 12.0 63 4.0 NNE 17 20 9 11 1010.9 1010.3 0.0
23/12:00am 20.7 17.7 11.9 57 5.0 NE 19 26 10 14 1010.9 1010.3 0.0
 
Date/Time
WST
Temp
°C
App
Temp
°C
Dew
Point
Rel
Hum
%
Delta-T
°C
Wind Press
QNH
hPa
Press
MSL
hPa
Rain
since 9 am
mm
Dir
 
Spd
km/h
Gust
km/h
Spd
kts
Gust
kts
22/11:30pm 21.2 18.0 11.8 55 5.3 NE 20 26 11 14 1011.2 1010.6 0.0
22/11:00pm 21.0 19.2 12.2 57 5.0 NNE 13 17 7 9 1011.4 1010.8 0.0
22/10:30pm 22.2 19.9 11.9 52 5.9 NE 15 22 8 12 1011.6 1011.0 0.0
22/10:00pm 22.7 19.5 12.0 50 6.1 ENE 20 30 11 16 1011.4 1010.8 0.0
22/09:30pm 22.8 19.0 12.4 52 6.0 ENE 24 35 13 19 1011.5 1010.9 0.0
22/09:00pm 23.1 19.0 12.7 52 6.0 ENE 26 39 14 21 1012.1 1011.5 0.0
22/08:30pm 23.1 19.5 13.0 53 5.9 ENE 24 35 13 19 1012.8 1012.2 0.0
22/08:00pm 23.4 19.9 13.3 53 5.9 ENE 24 32 13 17 1013.1 1012.5 0.0
22/07:30pm 23.6 20.8 13.2 52 6.1 ENE 20 32 11 17 1013.6 1013.0 0.0
22/07:00pm 23.6 21.4 13.2 52 6.1 ENE 17 20 9 11 1013.9 1013.3 0.0
22/06:30pm 23.6 21.5 13.5 53 5.9 NE 17 20 9 11 1014.7 1014.2 0.0
22/06:00pm 24.7 21.6 13.3 49 6.7 ENE 22 32 12 17 1014.2 1013.6 0.0
22/05:30pm 25.3 22.7 13.2 47 7.1 ENE 19 28 10 15 1014.0 1013.4 0.0
22/05:00pm 25.6 23.1 13.5 47 7.2 ENE 19 28 10 15 1014.2 1013.6 0.0
22/04:30pm 26.3 22.7 13.1 44 7.8 ENE 24 32 13 17 1014.6 1014.1 0.0
22/04:00pm 26.8 24.0 13.2 43 8.1 NE 20 30 11 16 1015.0 1014.5 0.0
22/03:30pm 27.3 24.2 13.3 42 8.3 ENE 22 32 12 17 1015.4 1014.8 0.0
22/03:00pm 26.8 24.2 13.9 45 7.7 NE 20 28 11 15 1015.9 1015.3 0.0
22/02:30pm 26.2 23.6 13.7 46 7.5 NE 20 30 11 16 1016.3 1015.7 0.0
22/02:00pm 25.9 24.9 14.7 50 6.8 E 13 30 7 16 1016.8 1016.2 0.0
22/01:30pm 25.5 23.0 14.0 49 6.9 NNE 20 28 11 15 1017.5 1016.9 0.0
22/01:00pm 25.3 23.1 15.0 53 6.2 NNE 20 30 11 16 1018.0 1017.5 0.0
22/12:30pm 24.9 23.0 15.2 54 5.9 NE 19 28 10 15 1018.5 1018.0 0.0
22/12:00pm 24.0 22.1 15.8 60 5.0 NE 20 33 11 18 1019.0 1018.5 0.0
22/11:30am 23.4 21.5 15.7 62 4.7 NE 20 30 11 16 1019.6 1019.0 0.0
22/11:00am 22.3 20.5 15.4 65 4.2 ENE 19 30 10 16 1020.3 1019.7 0.0
22/10:30am 20.6 18.5 14.7 69 3.5 ENE 19 26 10 14 1020.8 1020.2 0.0
22/10:00am 19.1 17.1 13.9 72 3.0 ENE 17 24 9 13 1021.4 1020.9 0.0
22/09:30am 18.1 15.2 14.0 77 2.4 NNE 22 28 12 15 1021.7 1021.2 0.0
22/09:00am 17.0 15.3 13.7 81 1.9 E 15 22 8 12 1022.2 1021.7 0.0
22/08:30am 15.8 12.9 12.9 83 1.6 ENE 20 26 11 14 1022.2 1021.7 0.0
22/08:00am 15.2 13.3 13.1 87 1.2 ENE 15 22 8 12 1022.5 1022.0 0.0
22/07:30am 14.6 13.0 12.8 89 1.0 E 13 19 7 10 1022.5 1022.0 0.0
22/07:00am 14.4 12.7 12.6 89 1.0 E 13 19 7 10 1022.7 1022.2 0.0
22/06:30am 14.2 12.5 12.6 90 0.9 E 13 17 7 9 1022.7 1022.2 0.0
22/06:00am 14.1 12.1 12.7 91 0.8 NE 15 22 8 12 1022.3 1021.8 0.0
22/05:30am 14.1 12.1 12.7 91 0.8 ENE 15 19 8 10 1021.9 1021.4 0.0
22/05:00am 14.1 11.3 12.7 91 0.8 NE 19 24 10 13 1021.6 1021.1 0.0
22/04:30am 14.4 12.2 13.4 94 0.6 NE 17 22 9 12 1021.4 1020.9 0.0
22/04:00am 14.3 13.0 13.7 96 0.3 ENE 13 26 7 14 1021.1 1020.6 0.0
22/03:30am 14.1 12.7 13.5 96 0.3 ENE 13 22 7 12 1021.4 1020.9 0.0
22/03:00am 14.0 13.0 13.4 96 0.3 ENE 11 15 6 8 1021.8 1021.3 0.0
22/02:30am 13.9 13.2 13.3 96 0.3 E 9 15 5 8 1021.8 1021.3 0.0
22/02:00am 14.0 12.5 13.2 95 0.4 E 13 24 7 13 1021.9 1021.4 0.0
22/01:30am 13.8 12.8 13.3 97 0.3 E 11 19 6 10 1022.2 1021.7 0.0
22/01:00am 13.5 12.7 12.9 96 0.3 SE 9 15 5 8 1022.3 1021.8 0.0
22/12:30am 13.8 13.0 12.9 94 0.5 SE 9 15 5 8 1022.6 1022.1 0.0
22/12:00am 14.1 13.3 12.8 92 0.7 ESE 9 15 5 8 1022.9 1022.4 0.0
 
Date/Time
WST
Temp
°C
App
Temp
°C
Dew
Point
Rel
Hum
%
Delta-T
°C
Wind Press
QNH
hPa
Press
MSL
hPa
Rain
since 9 am
mm
Dir
 
Spd
km/h
Gust
km/h
Spd
kts
Gust
kts
21/11:30pm 14.2 13.4 12.8 91 0.8 SE 9 15 5 8 1023.3 1022.7 0.0
21/11:00pm 14.4 13.4 12.4 88 1.1 SSE 9 15 5 8 1023.3 1022.7 0.0
21/10:30pm 14.7 13.8 12.6 87 1.2 SSE 9 17 5 9 1023.4 1022.8 0.0
21/10:00pm 15.2 13.6 12.7 85 1.4 SSE 13 22 7 12 1023.4 1022.8 0.0
21/09:30pm 15.7 14.1 12.8 83 1.6 SSE 13 19 7 10 1023.5 1022.9 0.0
21/09:00pm 16.3 14.0 13.0 81 1.9 SSE 17 30 9 16 1023.6 1023.0 0.0

Other Formats:

Comma delimited format used in spreadsheet applications
http://www.bom.gov.au/fwo/IDW60801/IDW60801.95642.axf

JavaScript Object Notation format (JSON) in row-major order
http://www.bom.gov.au/fwo/IDW60801/IDW60801.95642.json